createdAt,value
2022-09-26T00:00:47.244Z,9.90
2022-09-26T00:03:15.092Z,9.90
2022-09-26T00:05:44.178Z,9.90
2022-09-26T00:08:12.032Z,9.90
2022-09-26T00:10:39.774Z,9.90
2022-09-26T00:13:07.516Z,9.90
2022-09-26T00:15:35.286Z,9.90
2022-09-26T00:18:02.978Z,9.90
2022-09-26T00:20:30.724Z,9.90
2022-09-26T00:22:59.769Z,9.90
2022-09-26T00:25:27.529Z,9.90
2022-09-26T00:27:55.220Z,9.90
2022-09-26T00:30:24.104Z,10.00
2022-09-26T00:32:52.037Z,9.90
2022-09-26T00:35:19.904Z,9.90
2022-09-26T00:37:47.634Z,10.00
2022-09-26T00:40:16.900Z,10.00
2022-09-26T00:42:44.642Z,10.00
2022-09-26T00:45:12.407Z,10.00
2022-09-26T00:47:45.431Z,10.00
2022-09-26T00:50:19.450Z,10.00
2022-09-26T00:52:52.595Z,10.00
2022-09-26T00:55:25.926Z,10.00
2022-09-26T00:57:57.790Z,10.00
2022-09-26T01:00:25.734Z,10.00
2022-09-26T01:02:54.487Z,10.00
2022-09-26T01:05:24.700Z,10.10
2022-09-26T01:07:54.435Z,10.10
2022-09-26T01:10:24.494Z,10.10
2022-09-26T01:12:52.598Z,10.10
2022-09-26T01:15:20.729Z,10.10
2022-09-26T01:17:50.358Z,10.10
2022-09-26T01:20:31.716Z,10.10
2022-09-26T01:23:42.666Z,10.10
2022-09-26T01:26:42.839Z,10.10
2022-09-26T01:29:44.870Z,10.00
2022-09-26T01:32:45.840Z,10.00
2022-09-26T01:35:21.116Z,10.00
2022-09-26T01:38:00.781Z,10.00
2022-09-26T01:40:34.982Z,10.00
2022-09-26T01:43:09.433Z,10.00
2022-09-26T01:45:45.954Z,10.00
2022-09-26T01:48:19.380Z,10.00
2022-09-26T01:50:51.179Z,10.00
2022-09-26T01:53:22.823Z,10.00
2022-09-26T01:55:57.824Z,9.90
2022-09-26T01:58:30.087Z,9.90
2022-09-26T02:01:02.810Z,10.00
2022-09-26T02:03:36.239Z,10.00
2022-09-26T02:06:08.797Z,9.90
2022-09-26T02:08:41.555Z,9.90
2022-09-26T02:11:13.176Z,9.90
2022-09-26T02:13:51.742Z,10.00
2022-09-26T02:16:25.121Z,10.00
2022-09-26T02:19:00.440Z,9.90
2022-09-26T02:21:28.782Z,9.90
2022-09-26T02:23:56.553Z,9.90
2022-09-26T02:26:24.966Z,9.90
2022-09-26T02:28:52.805Z,9.90
2022-09-26T02:31:25.404Z,9.90
2022-09-26T02:33:55.277Z,10.00
2022-09-26T02:36:26.369Z,10.00
2022-09-26T02:38:54.214Z,10.00
2022-09-26T02:41:46.974Z,9.90
2022-09-26T02:44:39.077Z,10.00
2022-09-26T02:47:32.246Z,10.00
2022-09-26T02:50:19.048Z,10.00
2022-09-26T02:53:04.589Z,10.00
2022-09-26T02:55:47.987Z,10.00
2022-09-26T02:58:24.321Z,10.00
2022-09-26T03:01:00.497Z,10.00
2022-09-26T03:03:34.291Z,10.10
2022-09-26T03:06:06.991Z,10.10
2022-09-26T03:08:39.302Z,10.10
2022-09-26T03:11:10.760Z,10.10
2022-09-26T03:13:41.281Z,10.10
2022-09-26T03:16:11.018Z,10.00
2022-09-26T03:18:44.950Z,10.00
2022-09-26T03:21:14.798Z,10.10
2022-09-26T03:23:42.952Z,10.00
2022-09-26T03:26:13.871Z,10.00
2022-09-26T03:28:52.262Z,10.10
2022-09-26T03:31:22.137Z,10.00
2022-09-26T03:33:55.678Z,10.00
2022-09-26T03:36:25.142Z,10.10
2022-09-26T03:38:53.810Z,10.10
2022-09-26T03:41:37.119Z,10.10
2022-09-26T03:44:18.588Z,10.10
2022-09-26T03:47:19.005Z,10.10
2022-09-26T03:49:51.154Z,10.10
2022-09-26T03:52:20.593Z,10.20
2022-09-26T03:54:50.299Z,10.10
2022-09-26T03:57:18.856Z,10.20
2022-09-26T03:59:51.928Z,10.10
2022-09-26T04:02:20.871Z,10.10
2022-09-26T04:04:54.354Z,10.10
2022-09-26T04:07:24.542Z,10.20
2022-09-26T04:09:52.346Z,10.20
2022-09-26T04:12:21.396Z,10.20
2022-09-26T04:14:49.164Z,10.20
2022-09-26T04:17:17.695Z,10.20
2022-09-26T04:19:48.226Z,10.10
2022-09-26T04:22:16.031Z,10.20
2022-09-26T04:24:46.573Z,10.10
2022-09-26T04:27:15.823Z,10.20
2022-09-26T04:29:46.969Z,10.20
2022-09-26T04:32:20.248Z,10.20
2022-09-26T04:35:08.748Z,10.20
2022-09-26T04:37:38.050Z,10.20
2022-09-26T04:40:09.317Z,10.20
2022-09-26T04:42:41.402Z,10.20
2022-09-26T04:45:10.212Z,10.20
2022-09-26T04:47:37.913Z,10.20
2022-09-26T04:50:26.174Z,10.20
2022-09-26T04:53:07.079Z,10.20
2022-09-26T04:55:44.670Z,10.20
2022-09-26T04:58:12.537Z,10.20
2022-09-26T05:00:45.710Z,10.20
2022-09-26T05:03:15.481Z,10.20
2022-09-26T05:05:47.307Z,10.20
2022-09-26T05:08:15.812Z,10.20
2022-09-26T05:10:46.338Z,10.20
2022-09-26T05:13:14.163Z,10.20
2022-09-26T05:15:42.773Z,10.20
2022-09-26T05:18:11.500Z,10.20
2022-09-26T05:20:39.761Z,10.20
2022-09-26T05:23:08.933Z,10.20
2022-09-26T05:25:56.820Z,10.30
2022-09-26T05:28:27.114Z,10.30
2022-09-26T05:30:55.402Z,10.40
2022-09-26T05:33:23.209Z,10.40
2022-09-26T05:35:54.735Z,10.40
2022-09-26T05:38:22.670Z,10.40
2022-09-26T05:40:56.635Z,10.40
2022-09-26T05:43:27.668Z,10.40
2022-09-26T05:46:01.123Z,10.40
2022-09-26T05:48:36.297Z,10.40
2022-09-26T05:51:06.260Z,10.50
2022-09-26T05:53:34.522Z,10.50
2022-09-26T05:56:02.772Z,10.50
2022-09-26T05:58:41.005Z,10.50
2022-09-26T06:01:19.263Z,10.50
2022-09-26T06:03:54.013Z,10.60
2022-09-26T06:06:27.668Z,10.60
2022-09-26T06:09:03.600Z,10.60
2022-09-26T06:11:51.402Z,10.70
2022-09-26T06:14:20.955Z,10.70
2022-09-26T06:16:49.707Z,10.70
2022-09-26T06:19:22.660Z,10.70
2022-09-26T06:21:51.619Z,10.80
2022-09-26T06:24:20.457Z,10.80
2022-09-26T06:26:51.486Z,10.90
2022-09-26T06:29:21.243Z,10.90
2022-09-26T06:31:49.285Z,10.90
2022-09-26T06:34:42.772Z,10.90
2022-09-26T06:37:25.815Z,10.90
2022-09-26T06:39:58.507Z,11.00
2022-09-26T06:42:27.154Z,11.00
2022-09-26T06:45:15.104Z,11.10
2022-09-26T06:48:09.655Z,11.10
2022-09-26T06:51:00.575Z,11.10
2022-09-26T06:53:30.762Z,11.10
2022-09-26T06:56:00.002Z,11.20
2022-09-26T06:58:28.462Z,11.20
2022-09-26T07:01:01.985Z,11.30
2022-09-26T07:03:48.233Z,11.30
2022-09-26T07:06:29.776Z,11.30
2022-09-26T07:09:12.301Z,11.30
2022-09-26T07:12:15.760Z,11.40
2022-09-26T07:14:44.349Z,11.40
2022-09-26T07:17:28.013Z,11.50
2022-09-26T07:20:14.188Z,11.50
2022-09-26T07:23:00.929Z,11.60
2022-09-26T07:25:29.137Z,11.70
2022-09-26T07:27:56.905Z,11.60
2022-09-26T07:30:35.099Z,11.70
2022-09-26T07:33:33.505Z,11.70
2022-09-26T07:36:07.072Z,11.70
2022-09-26T07:38:34.937Z,11.80
2022-09-26T07:41:04.159Z,11.80
2022-09-26T07:44:19.367Z,11.80
2022-09-26T07:46:39.894Z,11.80
2022-09-26T07:49:26.514Z,11.90
2022-09-26T07:52:23.809Z,12.00
2022-09-26T07:55:10.876Z,12.10
2022-09-26T07:57:48.236Z,12.10
2022-09-26T08:00:24.539Z,12.20
2022-09-26T08:03:02.315Z,12.10
2022-09-26T08:05:33.403Z,12.10
2022-09-26T08:08:01.382Z,12.30
2022-09-26T08:10:47.706Z,12.40
2022-09-26T08:13:24.825Z,12.40
2022-09-26T08:16:08.361Z,12.50
2022-09-26T08:18:41.474Z,12.40
2022-09-26T08:21:10.606Z,12.50
2022-09-26T08:23:39.088Z,12.40
2022-09-26T08:26:27.027Z,12.40
2022-09-26T08:29:02.091Z,12.30
2022-09-26T08:31:30.954Z,12.40
2022-09-26T08:33:59.705Z,12.40
2022-09-26T08:36:28.992Z,12.40
2022-09-26T08:39:05.792Z,12.50
2022-09-26T08:42:23.656Z,12.50
2022-09-26T08:45:54.131Z,12.70
2022-09-26T08:48:56.664Z,12.70
2022-09-26T08:51:31.707Z,12.80
2022-09-26T08:54:10.122Z,12.70
2022-09-26T08:56:42.285Z,12.80
2022-09-26T08:59:19.672Z,12.80
2022-09-26T09:01:49.808Z,12.80
2022-09-26T09:04:27.140Z,12.70
2022-09-26T09:07:06.310Z,12.80
2022-09-26T09:09:34.717Z,12.90
2022-09-26T09:12:34.007Z,13.00
2022-09-26T09:15:34.906Z,13.20
2022-09-26T09:18:29.225Z,13.40
2022-09-26T09:21:19.925Z,13.60
2022-09-26T09:24:18.443Z,13.70
2022-09-26T09:30:15.686Z,14.00
2022-09-26T09:32:59.428Z,14.00
2022-09-26T09:36:02.019Z,14.20
2022-09-26T09:38:44.650Z,14.30
2022-09-26T09:41:36.363Z,14.30
2022-09-26T09:44:06.464Z,14.30
2022-09-26T09:46:41.223Z,14.40
2022-09-26T09:49:19.889Z,14.50
2022-09-26T09:52:02.062Z,14.50
2022-09-26T09:54:44.880Z,14.60
2022-09-26T09:57:55.529Z,14.60
2022-09-26T10:00:25.153Z,14.40
2022-09-26T10:03:13.045Z,14.40
2022-09-26T10:05:44.108Z,14.40
2022-09-26T10:08:20.282Z,14.50
2022-09-26T10:11:15.817Z,14.50
2022-09-26T10:14:17.495Z,14.50
2022-09-26T10:17:22.072Z,14.50
2022-09-26T10:20:05.323Z,14.50
2022-09-26T10:22:45.366Z,14.60
2022-09-26T10:25:26.452Z,14.60
2022-09-26T10:27:56.433Z,14.80
2022-09-26T10:30:31.940Z,14.80
2022-09-26T10:33:25.256Z,14.70
2022-09-26T10:36:04.946Z,14.90
2022-09-26T10:38:55.518Z,14.80
2022-09-26T10:41:24.429Z,14.90
2022-09-26T10:43:57.460Z,14.80
2022-09-26T10:46:46.541Z,14.80
2022-09-26T10:49:56.320Z,14.80
2022-09-26T10:52:49.646Z,14.80
2022-09-26T10:55:24.621Z,14.90
2022-09-26T10:57:56.926Z,14.90
2022-09-26T11:00:38.369Z,15.00
2022-09-26T11:03:17.307Z,15.00
2022-09-26T11:06:04.069Z,15.10
2022-09-26T11:08:35.901Z,15.20
2022-09-26T11:11:22.954Z,15.10
2022-09-26T11:14:05.122Z,15.20
2022-09-26T11:16:52.199Z,15.30
2022-09-26T11:19:29.030Z,15.50
2022-09-26T11:22:05.829Z,15.50
2022-09-26T11:24:45.797Z,15.40
2022-09-26T11:27:22.249Z,15.50
2022-09-26T11:29:55.696Z,15.50
2022-09-26T11:32:29.846Z,15.60
2022-09-26T11:35:03.032Z,15.60
2022-09-26T11:37:50.916Z,15.80
2022-09-26T11:40:41.265Z,15.70
2022-09-26T11:43:21.363Z,15.70
2022-09-26T11:46:09.004Z,15.70
2022-09-26T11:49:10.577Z,15.80
2022-09-26T11:52:14.419Z,15.80
2022-09-26T11:55:02.594Z,15.60
2022-09-26T11:57:38.380Z,15.40
2022-09-26T12:00:15.680Z,15.30
2022-09-26T12:03:05.009Z,15.30
2022-09-26T12:05:45.205Z,15.40
2022-09-26T12:08:36.634Z,15.10
2022-09-26T12:11:15.353Z,15.10
2022-09-26T12:13:52.197Z,15.00
2022-09-26T12:16:26.648Z,15.00
2022-09-26T12:19:02.131Z,14.90
2022-09-26T12:21:40.669Z,14.90
2022-09-26T12:24:23.988Z,14.90
2022-09-26T12:26:59.648Z,14.70
2022-09-26T12:29:37.155Z,14.80
2022-09-26T12:32:25.185Z,14.80
2022-09-26T12:35:08.172Z,14.80
2022-09-26T12:38:03.905Z,14.80
2022-09-26T12:40:42.487Z,14.70
2022-09-26T12:43:40.732Z,14.50
2022-09-26T12:46:30.928Z,14.50
2022-09-26T12:49:18.813Z,14.40
2022-09-26T12:51:51.739Z,14.30
2022-09-26T12:54:46.779Z,14.20
2022-09-26T12:57:27.603Z,14.20
2022-09-26T13:00:12.606Z,14.10
2022-09-26T13:03:04.824Z,14.10
2022-09-26T13:05:59.843Z,14.10
2022-09-26T13:08:36.059Z,14.20
2022-09-26T13:11:16.789Z,14.10
2022-09-26T13:14:09.732Z,14.00
2022-09-26T13:16:50.051Z,13.90
2022-09-26T13:19:23.529Z,14.00
2022-09-26T13:21:58.489Z,14.00
2022-09-26T13:24:34.668Z,14.00
2022-09-26T13:27:14.695Z,14.10
2022-09-26T13:29:47.742Z,14.10
2022-09-26T13:32:22.676Z,14.10
2022-09-26T13:34:55.563Z,14.10
2022-09-26T13:37:36.251Z,14.10
2022-09-26T13:40:21.075Z,14.20
2022-09-26T13:43:02.245Z,14.20
2022-09-26T13:45:49.102Z,14.30
2022-09-26T13:48:24.097Z,14.20
2022-09-26T13:50:56.571Z,14.30
2022-09-26T13:53:32.265Z,14.30
2022-09-26T13:56:37.572Z,14.20
2022-09-26T13:59:24.743Z,14.30
2022-09-26T14:02:29.267Z,14.30
2022-09-26T14:05:28.481Z,14.30
2022-09-26T14:08:14.157Z,14.30
2022-09-26T14:10:44.174Z,14.20
2022-09-26T14:13:21.836Z,14.30
2022-09-26T14:16:03.845Z,14.30
2022-09-26T14:18:57.008Z,14.30
2022-09-26T14:21:35.981Z,14.30
2022-09-26T14:24:38.372Z,14.30
2022-09-26T14:27:42.166Z,14.30
2022-09-26T14:30:26.394Z,14.30
2022-09-26T14:33:01.941Z,14.20
2022-09-26T14:35:33.182Z,14.10
2022-09-26T14:38:03.053Z,14.00
2022-09-26T14:40:33.922Z,14.00
2022-09-26T14:43:11.701Z,13.90
2022-09-26T14:45:50.163Z,13.80
2022-09-26T14:48:32.085Z,13.80
2022-09-26T14:51:04.563Z,13.70
2022-09-26T14:53:38.698Z,13.80
2022-09-26T14:56:10.649Z,13.80
2022-09-26T14:58:50.680Z,13.70
2022-09-26T15:01:24.486Z,13.60
2022-09-26T15:03:56.595Z,13.60
2022-09-26T15:06:27.026Z,13.50
2022-09-26T15:08:56.194Z,13.50
2022-09-26T15:11:38.716Z,13.50
2022-09-26T15:14:20.762Z,13.50
2022-09-26T15:16:53.447Z,13.50
2022-09-26T15:19:25.295Z,13.40
2022-09-26T15:22:00.438Z,13.40
2022-09-26T15:24:29.954Z,13.40
2022-09-26T15:27:01.064Z,13.40
2022-09-26T15:29:28.941Z,13.40
2022-09-26T15:31:57.530Z,13.40
2022-09-26T15:34:33.193Z,13.40
2022-09-26T15:37:10.174Z,13.40
2022-09-26T15:39:41.993Z,13.30
2022-09-26T15:42:46.226Z,13.20
2022-09-26T15:45:23.081Z,13.30
2022-09-26T15:47:50.882Z,13.30
2022-09-26T15:50:24.399Z,13.20
2022-09-26T15:52:57.575Z,13.20
2022-09-26T15:55:29.205Z,13.20
2022-09-26T15:57:59.801Z,13.10
2022-09-26T16:00:32.658Z,13.10
2022-09-26T16:03:20.486Z,13.10
2022-09-26T16:05:49.922Z,13.10
2022-09-26T16:08:23.193Z,13.00
2022-09-26T16:10:56.938Z,12.90
2022-09-26T16:13:27.378Z,12.90
2022-09-26T16:16:03.695Z,12.90
2022-09-26T16:18:38.898Z,12.90
2022-09-26T16:21:19.453Z,12.80
2022-09-26T16:23:50.647Z,12.80
2022-09-26T16:26:29.968Z,12.70
2022-09-26T16:28:58.534Z,12.70
2022-09-26T16:31:39.523Z,12.70
2022-09-26T16:34:21.029Z,12.70
2022-09-26T16:36:49.673Z,12.60
2022-09-26T16:39:23.794Z,12.60
2022-09-26T16:42:02.849Z,12.70
2022-09-26T16:44:35.922Z,12.70
2022-09-26T16:47:07.189Z,12.70
2022-09-26T16:49:47.036Z,12.60
2022-09-26T16:52:26.821Z,12.60
2022-09-26T16:54:56.882Z,12.60
2022-09-26T16:57:27.894Z,12.50
2022-09-26T17:00:21.467Z,12.50
2022-09-26T17:02:48.484Z,12.50
2022-09-26T17:05:19.246Z,12.50
2022-09-26T17:07:49.451Z,12.50
2022-09-26T17:10:20.483Z,12.50
2022-09-26T17:12:50.459Z,12.50
2022-09-26T17:15:28.222Z,12.50
2022-09-26T17:17:57.050Z,12.50
2022-09-26T17:20:26.718Z,12.40
2022-09-26T17:22:54.727Z,12.40
2022-09-26T17:25:25.101Z,12.50
2022-09-26T17:27:57.568Z,12.50
2022-09-26T17:30:25.476Z,12.50
2022-09-26T17:32:54.371Z,12.40
2022-09-26T17:35:25.939Z,12.40
2022-09-26T17:37:54.596Z,12.40
2022-09-26T17:40:26.152Z,12.40
2022-09-26T17:42:56.423Z,12.40
2022-09-26T17:45:28.747Z,12.40
2022-09-26T17:47:58.777Z,12.40
2022-09-26T17:50:29.823Z,12.40
2022-09-26T17:52:58.818Z,12.40
2022-09-26T17:55:28.928Z,12.30
2022-09-26T17:57:58.257Z,12.30
2022-09-26T18:00:26.615Z,12.40
2022-09-26T18:02:59.549Z,12.40
2022-09-26T18:05:31.533Z,12.40
2022-09-26T18:08:02.319Z,12.40
2022-09-26T18:10:34.380Z,12.40
2022-09-26T18:13:04.157Z,12.40
2022-09-26T18:15:32.026Z,12.40
2022-09-26T18:18:01.354Z,12.40
2022-09-26T18:20:37.633Z,12.40
2022-09-26T18:23:07.239Z,12.40
2022-09-26T18:25:38.146Z,12.40
2022-09-26T18:28:11.984Z,12.30
2022-09-26T18:30:42.945Z,12.30
2022-09-26T18:33:12.933Z,12.40
2022-09-26T18:35:43.012Z,12.30
2022-09-26T18:38:10.950Z,12.30
2022-09-26T18:40:44.153Z,12.40
2022-09-26T18:43:18.052Z,12.40
2022-09-26T18:45:46.361Z,12.40
2022-09-26T18:48:22.025Z,12.30
2022-09-26T18:50:50.156Z,12.40
2022-09-26T18:53:19.869Z,12.40
2022-09-26T18:56:06.710Z,12.30
2022-09-26T18:58:35.529Z,12.40
2022-09-26T19:01:05.766Z,12.40
2022-09-26T19:03:36.690Z,12.40
2022-09-26T19:06:06.779Z,12.40
2022-09-26T19:08:37.658Z,12.40
2022-09-26T19:11:12.841Z,12.40
2022-09-26T19:13:40.911Z,12.40
2022-09-26T19:16:09.593Z,12.40
2022-09-26T19:18:38.389Z,12.40
2022-09-26T19:21:14.531Z,12.40
2022-09-26T19:23:42.798Z,12.30
2022-09-26T19:26:27.142Z,12.30
2022-09-26T19:28:56.847Z,12.40
2022-09-26T19:31:24.946Z,12.40
2022-09-26T19:33:53.241Z,12.40
2022-09-26T19:36:21.773Z,12.30
2022-09-26T19:38:49.593Z,12.30
2022-09-26T19:41:18.839Z,12.30
2022-09-26T19:43:46.656Z,12.30
2022-09-26T19:46:17.973Z,12.20
2022-09-26T19:48:45.856Z,12.20
2022-09-26T19:51:16.777Z,12.20
2022-09-26T19:53:44.715Z,12.30
2022-09-26T19:56:12.757Z,12.30
2022-09-26T19:58:42.705Z,12.30
2022-09-26T20:01:16.765Z,12.30
2022-09-26T20:03:44.858Z,12.20
2022-09-26T20:06:14.999Z,12.20
2022-09-26T20:08:43.014Z,12.20
2022-09-26T20:11:11.294Z,12.10
2022-09-26T20:13:53.073Z,12.20
2022-09-26T20:16:23.062Z,12.10
2022-09-26T20:18:51.981Z,12.10
2022-09-26T20:21:24.605Z,12.10
2022-09-26T20:23:52.684Z,12.00
2022-09-26T20:26:20.912Z,12.10
2022-09-26T20:28:48.927Z,12.10
2022-09-26T20:31:23.680Z,12.10
2022-09-26T20:33:52.408Z,12.00
2022-09-26T20:36:24.933Z,12.00
2022-09-26T20:38:55.566Z,12.10
2022-09-26T20:41:27.014Z,12.10
2022-09-26T20:44:01.677Z,12.20
2022-09-26T20:46:33.849Z,12.20
2022-09-26T20:49:03.412Z,12.10
2022-09-26T20:51:34.264Z,12.10
2022-09-26T20:54:02.217Z,12.10
2022-09-26T20:56:30.270Z,12.10
2022-09-26T20:58:58.058Z,12.10
2022-09-26T21:01:29.067Z,12.10
2022-09-26T21:03:58.633Z,12.10
2022-09-26T21:06:31.168Z,12.10
2022-09-26T21:08:59.066Z,12.10
2022-09-26T21:11:26.955Z,12.10
2022-09-26T21:13:54.777Z,12.00
2022-09-26T21:16:23.042Z,12.00
2022-09-26T21:18:52.847Z,12.00
2022-09-26T21:21:24.419Z,12.10
2022-09-26T21:23:59.968Z,12.00
2022-09-26T21:26:29.886Z,12.00
2022-09-26T21:28:58.375Z,12.10
2022-09-26T21:31:28.554Z,12.10
2022-09-26T21:33:57.503Z,12.10
2022-09-26T21:36:34.675Z,12.10
2022-09-26T21:39:03.387Z,12.00
2022-09-26T21:41:31.288Z,12.00
2022-09-26T21:44:02.754Z,12.10
2022-09-26T21:46:30.753Z,12.10
2022-09-26T21:48:58.606Z,12.00
2022-09-26T21:51:29.710Z,12.00
2022-09-26T21:54:00.671Z,12.00
2022-09-26T21:56:31.110Z,12.00
2022-09-26T21:58:59.437Z,12.10
2022-09-26T22:01:27.263Z,12.10
2022-09-26T22:03:55.350Z,12.10
2022-09-26T22:06:23.094Z,12.00
2022-09-26T22:08:52.320Z,12.00
2022-09-26T22:11:20.102Z,12.00
2022-09-26T22:13:47.958Z,12.00
2022-09-26T22:16:15.960Z,12.00
2022-09-26T22:18:43.860Z,12.00
2022-09-26T22:21:12.778Z,12.00
2022-09-26T22:23:40.939Z,12.00
2022-09-26T22:26:10.449Z,12.00
2022-09-26T22:28:38.257Z,12.00
2022-09-26T22:31:06.506Z,12.00
2022-09-26T22:33:34.462Z,12.00
2022-09-26T22:36:02.766Z,12.00
2022-09-26T22:38:30.735Z,11.90
2022-09-26T22:40:59.168Z,11.90
2022-09-26T22:43:28.762Z,11.90
2022-09-26T22:46:02.116Z,11.90
2022-09-26T22:48:31.924Z,11.90
2022-09-26T22:51:00.274Z,12.00
2022-09-26T22:53:28.048Z,12.00
2022-09-26T22:55:57.513Z,12.00
2022-09-26T22:58:28.086Z,12.00
2022-09-26T23:00:55.945Z,12.00
2022-09-26T23:03:23.761Z,12.00
2022-09-26T23:06:50.083Z,12.00
2022-09-26T23:09:21.038Z,11.90
2022-09-26T23:11:48.986Z,11.90
2022-09-26T23:14:18.210Z,12.00
2022-09-26T23:16:46.164Z,11.90
2022-09-26T23:19:15.788Z,11.90
2022-09-26T23:21:43.873Z,11.90
2022-09-26T23:24:11.736Z,11.80
2022-09-26T23:26:39.681Z,11.80
2022-09-26T23:29:07.543Z,11.90
2022-09-26T23:31:36.827Z,11.90
2022-09-26T23:34:04.886Z,11.90
2022-09-26T23:36:32.883Z,11.90
2022-09-26T23:39:00.805Z,11.90
2022-09-26T23:41:28.785Z,11.90
2022-09-26T23:43:56.975Z,11.90
2022-09-26T23:46:24.938Z,11.90
2022-09-26T23:48:54.379Z,11.90
2022-09-26T23:51:22.352Z,11.90
2022-09-26T23:53:50.312Z,11.80
2022-09-26T23:56:18.226Z,11.90
2022-09-26T23:58:47.759Z,11.90
